sensor_id;sensor_type;location;lat;lon;timestamp;temperature;humidity
15483;DHT22;7843;50.330;7.312;2023-02-28T00:00:49;0.70;93.60
15483;DHT22;7843;50.330;7.312;2023-02-28T00:03:16;0.70;93.70
15483;DHT22;7843;50.330;7.312;2023-02-28T00:05:43;0.60;93.70
15483;DHT22;7843;50.330;7.312;2023-02-28T00:08:09;0.50;93.90
15483;DHT22;7843;50.330;7.312;2023-02-28T00:10:36;0.40;94.20
15483;DHT22;7843;50.330;7.312;2023-02-28T00:13:05;0.30;94.50
15483;DHT22;7843;50.330;7.312;2023-02-28T00:15:33;0.30;94.60
15483;DHT22;7843;50.330;7.312;2023-02-28T00:18:01;0.30;94.80
15483;DHT22;7843;50.330;7.312;2023-02-28T00:20:27;0.20;94.90
15483;DHT22;7843;50.330;7.312;2023-02-28T00:22:54;0.10;95.10
15483;DHT22;7843;50.330;7.312;2023-02-28T00:25:23;0.10;95.40
15483;DHT22;7843;50.330;7.312;2023-02-28T00:27:50;0.00;95.60
15483;DHT22;7843;50.330;7.312;2023-02-28T00:30:20;0.00;95.80
15483;DHT22;7843;50.330;7.312;2023-02-28T00:32:47;0.00;95.90
15483;DHT22;7843;50.330;7.312;2023-02-28T00:35:14;-0.10;96.00
15483;DHT22;7843;50.330;7.312;2023-02-28T00:37:41;-0.10;96.10
15483;DHT22;7843;50.330;7.312;2023-02-28T00:40:11;-0.20;96.20
15483;DHT22;7843;50.330;7.312;2023-02-28T00:42:39;-0.30;96.30
15483;DHT22;7843;50.330;7.312;2023-02-28T00:45:06;-0.30;96.50
15483;DHT22;7843;50.330;7.312;2023-02-28T00:47:34;-0.40;96.70
15483;DHT22;7843;50.330;7.312;2023-02-28T00:50:01;-0.50;96.80
15483;DHT22;7843;50.330;7.312;2023-02-28T00:52:27;-0.50;96.90
15483;DHT22;7843;50.330;7.312;2023-02-28T00:54:54;-0.50;97.00
15483;DHT22;7843;50.330;7.312;2023-02-28T00:57:21;-0.60;97.10
15483;DHT22;7843;50.330;7.312;2023-02-28T00:59:47;-0.60;97.30
15483;DHT22;7843;50.330;7.312;2023-02-28T01:02:14;-0.70;97.40
15483;DHT22;7843;50.330;7.312;2023-02-28T01:04:41;-0.70;97.70
15483;DHT22;7843;50.330;7.312;2023-02-28T01:07:07;-0.80;97.70
15483;DHT22;7843;50.330;7.312;2023-02-28T01:09:34;-0.90;97.90
15483;DHT22;7843;50.330;7.312;2023-02-28T01:12:01;-1.00;98.10
15483;DHT22;7843;50.330;7.312;2023-02-28T01:14:27;-1.00;98.20
15483;DHT22;7843;50.330;7.312;2023-02-28T01:16:54;-1.00;98.20
15483;DHT22;7843;50.330;7.312;2023-02-28T01:19:21;-1.00;98.30
15483;DHT22;7843;50.330;7.312;2023-02-28T01:21:47;-1.00;98.30
15483;DHT22;7843;50.330;7.312;2023-02-28T01:24:14;-1.00;98.40
15483;DHT22;7843;50.330;7.312;2023-02-28T01:26:41;-1.10;98.50
15483;DHT22;7843;50.330;7.312;2023-02-28T01:29:07;-1.10;98.50
15483;DHT22;7843;50.330;7.312;2023-02-28T01:31:34;-1.10;98.60
15483;DHT22;7843;50.330;7.312;2023-02-28T01:34:01;-1.20;98.70
15483;DHT22;7843;50.330;7.312;2023-02-28T01:36:29;-1.20;98.80
15483;DHT22;7843;50.330;7.312;2023-02-28T01:38:55;-1.20;98.80
15483;DHT22;7843;50.330;7.312;2023-02-28T01:41:28;-1.20;98.90
15483;DHT22;7843;50.330;7.312;2023-02-28T01:44:03;-1.20;98.90
15483;DHT22;7843;50.330;7.312;2023-02-28T01:46:31;-1.30;98.90
15483;DHT22;7843;50.330;7.312;2023-02-28T01:49:06;-1.30;98.90
15483;DHT22;7843;50.330;7.312;2023-02-28T01:51:40;-1.30;98.90
15483;DHT22;7843;50.330;7.312;2023-02-28T01:54:16;-1.40;98.90
15483;DHT22;7843;50.330;7.312;2023-02-28T01:56:49;-1.40;99.00
15483;DHT22;7843;50.330;7.312;2023-02-28T01:59:27;-1.40;99.10
15483;DHT22;7843;50.330;7.312;2023-02-28T02:01:56;-1.40;99.20
15483;DHT22;7843;50.330;7.312;2023-02-28T02:04:27;-1.40;99.20
15483;DHT22;7843;50.330;7.312;2023-02-28T02:06:58;-1.50;99.20
15483;DHT22;7843;50.330;7.312;2023-02-28T02:09:25;-1.40;99.20
15483;DHT22;7843;50.330;7.312;2023-02-28T02:11:54;-1.40;99.10
15483;DHT22;7843;50.330;7.312;2023-02-28T02:39:52;-1.80;99.30
15483;DHT22;7843;50.330;7.312;2023-02-28T02:46:01;-1.80;99.20
15483;DHT22;7843;50.330;7.312;2023-02-28T02:48:10;-1.80;99.20
15483;DHT22;7843;50.330;7.312;2023-02-28T02:50:43;-1.80;99.10
15483;DHT22;7843;50.330;7.312;2023-02-28T02:53:12;-1.80;99.00
15483;DHT22;7843;50.330;7.312;2023-02-28T02:55:44;-1.80;99.10
15483;DHT22;7843;50.330;7.312;2023-02-28T02:58:15;-1.70;99.10
15483;DHT22;7843;50.330;7.312;2023-02-28T03:00:46;-1.70;99.10
15483;DHT22;7843;50.330;7.312;2023-02-28T03:03:16;-1.60;99.10
15483;DHT22;7843;50.330;7.312;2023-02-28T03:05:51;-1.60;99.10
15483;DHT22;7843;50.330;7.312;2023-02-28T03:08:17;-1.60;99.10
15483;DHT22;7843;50.330;7.312;2023-02-28T03:10:48;-1.50;98.90
15483;DHT22;7843;50.330;7.312;2023-02-28T03:21:47;-1.50;98.50
15483;DHT22;7843;50.330;7.312;2023-02-28T03:30:10;-1.60;98.60
15483;DHT22;7843;50.330;7.312;2023-02-28T03:32:56;-1.70;98.60
15483;DHT22;7843;50.330;7.312;2023-02-28T03:35:27;-1.70;98.60
15483;DHT22;7843;50.330;7.312;2023-02-28T03:38:24;-1.80;98.50
15483;DHT22;7843;50.330;7.312;2023-02-28T03:41:05;-1.80;98.40
15483;DHT22;7843;50.330;7.312;2023-02-28T03:43:35;-1.90;98.30
15483;DHT22;7843;50.330;7.312;2023-02-28T03:46:08;-1.90;98.30
15483;DHT22;7843;50.330;7.312;2023-02-28T03:48:50;-1.90;98.20
15483;DHT22;7843;50.330;7.312;2023-02-28T03:51:19;-1.90;98.20
15483;DHT22;7843;50.330;7.312;2023-02-28T03:53:52;-2.00;98.10
15483;DHT22;7843;50.330;7.312;2023-02-28T03:56:43;-2.00;98.20
15483;DHT22;7843;50.330;7.312;2023-02-28T03:59:37;-2.00;98.10
15483;DHT22;7843;50.330;7.312;2023-02-28T04:02:06;-2.00;98.00
15483;DHT22;7843;50.330;7.312;2023-02-28T04:04:33;-2.00;97.90
15483;DHT22;7843;50.330;7.312;2023-02-28T04:07:08;-2.10;97.80
15483;DHT22;7843;50.330;7.312;2023-02-28T04:09:37;-2.20;98.00
15483;DHT22;7843;50.330;7.312;2023-02-28T04:12:04;-2.20;98.00
15483;DHT22;7843;50.330;7.312;2023-02-28T04:14:31;-2.20;98.20
15483;DHT22;7843;50.330;7.312;2023-02-28T04:16:58;-2.20;98.10
15483;DHT22;7843;50.330;7.312;2023-02-28T04:19:24;-2.30;98.10
15483;DHT22;7843;50.330;7.312;2023-02-28T04:21:52;-2.30;98.20
15483;DHT22;7843;50.330;7.312;2023-02-28T04:24:21;-2.30;98.20
15483;DHT22;7843;50.330;7.312;2023-02-28T04:26:53;-2.30;98.30
15483;DHT22;7843;50.330;7.312;2023-02-28T04:29:28;-2.30;98.30
15483;DHT22;7843;50.330;7.312;2023-02-28T04:31:56;-2.40;98.30
15483;DHT22;7843;50.330;7.312;2023-02-28T04:34:27;-2.30;98.40
15483;DHT22;7843;50.330;7.312;2023-02-28T04:36:56;-2.40;98.30
15483;DHT22;7843;50.330;7.312;2023-02-28T04:39:37;-2.40;98.30
15483;DHT22;7843;50.330;7.312;2023-02-28T04:42:04;-2.40;98.30
15483;DHT22;7843;50.330;7.312;2023-02-28T04:44:31;-2.40;98.30
15483;DHT22;7843;50.330;7.312;2023-02-28T04:46:58;-2.40;98.40
15483;DHT22;7843;50.330;7.312;2023-02-28T04:49:25;-2.40;98.40
15483;DHT22;7843;50.330;7.312;2023-02-28T04:51:52;-2.40;98.30
15483;DHT22;7843;50.330;7.312;2023-02-28T04:54:19;-2.50;98.40
15483;DHT22;7843;50.330;7.312;2023-02-28T04:56:46;-2.50;98.40
15483;DHT22;7843;50.330;7.312;2023-02-28T04:59:14;-2.50;98.50
15483;DHT22;7843;50.330;7.312;2023-02-28T05:01:46;-2.50;98.50
15483;DHT22;7843;50.330;7.312;2023-02-28T05:04:13;-2.50;98.60
15483;DHT22;7843;50.330;7.312;2023-02-28T05:06:40;-2.50;98.50
15483;DHT22;7843;50.330;7.312;2023-02-28T05:09:06;-2.50;98.50
15483;DHT22;7843;50.330;7.312;2023-02-28T05:11:34;-2.50;98.60
15483;DHT22;7843;50.330;7.312;2023-02-28T05:14:04;-2.50;98.70
15483;DHT22;7843;50.330;7.312;2023-02-28T05:16:31;-2.60;98.70
15483;DHT22;7843;50.330;7.312;2023-02-28T05:18:58;-2.60;98.90
15483;DHT22;7843;50.330;7.312;2023-02-28T05:21:27;-2.60;99.00
15483;DHT22;7843;50.330;7.312;2023-02-28T05:23:55;-2.50;98.90
15483;DHT22;7843;50.330;7.312;2023-02-28T05:26:23;-2.50;98.70
15483;DHT22;7843;50.330;7.312;2023-02-28T05:28:49;-2.60;98.70
15483;DHT22;7843;50.330;7.312;2023-02-28T05:31:16;-2.60;98.90
15483;DHT22;7843;50.330;7.312;2023-02-28T05:33:43;-2.60;98.90
15483;DHT22;7843;50.330;7.312;2023-02-28T05:36:10;-2.60;99.00
15483;DHT22;7843;50.330;7.312;2023-02-28T05:38:36;-2.60;99.10
15483;DHT22;7843;50.330;7.312;2023-02-28T05:41:08;-2.60;99.10
15483;DHT22;7843;50.330;7.312;2023-02-28T05:43:36;-2.60;99.10
15483;DHT22;7843;50.330;7.312;2023-02-28T05:46:05;-2.60;99.00
15483;DHT22;7843;50.330;7.312;2023-02-28T05:48:35;-2.60;99.00
15483;DHT22;7843;50.330;7.312;2023-02-28T05:51:03;-2.70;99.00
15483;DHT22;7843;50.330;7.312;2023-02-28T05:53:31;-2.80;99.00
15483;DHT22;7843;50.330;7.312;2023-02-28T05:55:58;-2.80;99.00
15483;DHT22;7843;50.330;7.312;2023-02-28T05:58:25;-2.80;99.00
15483;DHT22;7843;50.330;7.312;2023-02-28T06:00:56;-2.80;99.00
15483;DHT22;7843;50.330;7.312;2023-02-28T06:03:22;-2.80;99.10
15483;DHT22;7843;50.330;7.312;2023-02-28T06:05:49;-2.80;99.00
15483;DHT22;7843;50.330;7.312;2023-02-28T06:08:16;-2.80;99.00
15483;DHT22;7843;50.330;7.312;2023-02-28T06:10:43;-2.80;99.00
15483;DHT22;7843;50.330;7.312;2023-02-28T06:13:10;-2.90;98.90
15483;DHT22;7843;50.330;7.312;2023-02-28T06:15:38;-2.90;98.90
15483;DHT22;7843;50.330;7.312;2023-02-28T06:18:05;-2.90;98.80
15483;DHT22;7843;50.330;7.312;2023-02-28T06:20:31;-2.90;98.80
15483;DHT22;7843;50.330;7.312;2023-02-28T06:22:58;-2.90;98.80
15483;DHT22;7843;50.330;7.312;2023-02-28T06:25:26;-2.90;98.80
15483;DHT22;7843;50.330;7.312;2023-02-28T06:27:54;-2.90;98.70
15483;DHT22;7843;50.330;7.312;2023-02-28T06:30:21;-2.90;98.60
15483;DHT22;7843;50.330;7.312;2023-02-28T06:32:53;-2.90;98.50
15483;DHT22;7843;50.330;7.312;2023-02-28T06:35:21;-2.90;98.50
15483;DHT22;7843;50.330;7.312;2023-02-28T06:37:47;-2.90;98.60
15483;DHT22;7843;50.330;7.312;2023-02-28T06:40:14;-2.90;98.50
15483;DHT22;7843;50.330;7.312;2023-02-28T06:42:42;-2.90;98.50
15483;DHT22;7843;50.330;7.312;2023-02-28T06:45:10;-2.80;98.40
15483;DHT22;7843;50.330;7.312;2023-02-28T06:47:38;-2.80;98.50
15483;DHT22;7843;50.330;7.312;2023-02-28T06:50:06;-2.80;98.50
15483;DHT22;7843;50.330;7.312;2023-02-28T06:52:33;-2.80;98.40
15483;DHT22;7843;50.330;7.312;2023-02-28T06:55:03;-2.70;98.40
15483;DHT22;7843;50.330;7.312;2023-02-28T06:57:31;-2.70;98.40
15483;DHT22;7843;50.330;7.312;2023-02-28T06:59:59;-2.60;98.30
15483;DHT22;7843;50.330;7.312;2023-02-28T07:02:27;-2.60;98.10
15483;DHT22;7843;50.330;7.312;2023-02-28T07:04:54;-2.50;97.90
15483;DHT22;7843;50.330;7.312;2023-02-28T07:07:21;-2.40;97.90
15483;DHT22;7843;50.330;7.312;2023-02-28T07:09:47;-2.30;97.90
15483;DHT22;7843;50.330;7.312;2023-02-28T07:12:14;-2.20;97.80
15483;DHT22;7843;50.330;7.312;2023-02-28T07:14:41;-2.20;97.70
15483;DHT22;7843;50.330;7.312;2023-02-28T07:17:08;-2.10;97.80
15483;DHT22;7843;50.330;7.312;2023-02-28T07:19:38;-2.00;97.60
15483;DHT22;7843;50.330;7.312;2023-02-28T07:22:05;-1.90;97.50
15483;DHT22;7843;50.330;7.312;2023-02-28T07:24:31;-1.80;97.00
15483;DHT22;7843;50.330;7.312;2023-02-28T07:26:58;-1.60;96.90
15483;DHT22;7843;50.330;7.312;2023-02-28T07:29:25;-1.50;96.70
15483;DHT22;7843;50.330;7.312;2023-02-28T07:31:52;-1.30;96.50
15483;DHT22;7843;50.330;7.312;2023-02-28T07:34:20;-1.20;96.50
15483;DHT22;7843;50.330;7.312;2023-02-28T07:36:47;-1.00;96.10
15483;DHT22;7843;50.330;7.312;2023-02-28T07:39:14;-0.90;95.70
15483;DHT22;7843;50.330;7.312;2023-02-28T07:41:40;-0.90;95.40
15483;DHT22;7843;50.330;7.312;2023-02-28T07:44:10;-0.80;95.10
15483;DHT22;7843;50.330;7.312;2023-02-28T07:46:37;-0.90;94.90
15483;DHT22;7843;50.330;7.312;2023-02-28T07:49:05;-0.90;94.80
15483;DHT22;7843;50.330;7.312;2023-02-28T07:51:32;-0.90;95.00
15483;DHT22;7843;50.330;7.312;2023-02-28T07:53:59;-0.90;95.00
15483;DHT22;7843;50.330;7.312;2023-02-28T07:56:25;-1.00;95.40
15483;DHT22;7843;50.330;7.312;2023-02-28T07:58:52;-1.00;95.50
15483;DHT22;7843;50.330;7.312;2023-02-28T08:01:19;-1.10;95.40
15483;DHT22;7843;50.330;7.312;2023-02-28T08:03:46;-1.20;95.40
15483;DHT22;7843;50.330;7.312;2023-02-28T08:06:22;-1.20;95.40
15483;DHT22;7843;50.330;7.312;2023-02-28T08:08:49;-1.20;95.50
15483;DHT22;7843;50.330;7.312;2023-02-28T08:11:17;-1.20;95.50
15483;DHT22;7843;50.330;7.312;2023-02-28T08:13:46;-1.30;95.80
15483;DHT22;7843;50.330;7.312;2023-02-28T08:16:13;-1.20;95.90
15483;DHT22;7843;50.330;7.312;2023-02-28T08:18:49;-1.30;95.80
15483;DHT22;7843;50.330;7.312;2023-02-28T08:21:17;-1.30;95.50
15483;DHT22;7843;50.330;7.312;2023-02-28T08:23:46;-1.20;95.40
15483;DHT22;7843;50.330;7.312;2023-02-28T08:26:12;-1.20;95.10
15483;DHT22;7843;50.330;7.312;2023-02-28T08:28:39;-1.10;94.90
15483;DHT22;7843;50.330;7.312;2023-02-28T08:31:10;-1.00;94.90
15483;DHT22;7843;50.330;7.312;2023-02-28T08:33:38;-0.90;94.60
15483;DHT22;7843;50.330;7.312;2023-02-28T08:36:06;-0.80;94.40
15483;DHT22;7843;50.330;7.312;2023-02-28T08:38:33;-0.70;94.10
15483;DHT22;7843;50.330;7.312;2023-02-28T08:41:02;-0.50;93.60
15483;DHT22;7843;50.330;7.312;2023-02-28T08:43:29;-0.40;93.10
15483;DHT22;7843;50.330;7.312;2023-02-28T08:45:56;-0.30;93.00
15483;DHT22;7843;50.330;7.312;2023-02-28T08:48:29;-0.20;92.90
15483;DHT22;7843;50.330;7.312;2023-02-28T08:51:02;-0.20;92.90
15483;DHT22;7843;50.330;7.312;2023-02-28T08:53:35;-0.10;92.30
15483;DHT22;7843;50.330;7.312;2023-02-28T08:56:07;-0.20;92.50
15483;DHT22;7843;50.330;7.312;2023-02-28T08:58:35;-0.20;92.30
15483;DHT22;7843;50.330;7.312;2023-02-28T09:01:11;-0.10;92.10
15483;DHT22;7843;50.330;7.312;2023-02-28T09:03:38;-0.10;92.10
15483;DHT22;7843;50.330;7.312;2023-02-28T09:06:05;0.00;91.20
15483;DHT22;7843;50.330;7.312;2023-02-28T09:08:32;0.20;90.50
15483;DHT22;7843;50.330;7.312;2023-02-28T09:10:58;0.30;88.90
15483;DHT22;7843;50.330;7.312;2023-02-28T09:13:27;0.50;87.50
15483;DHT22;7843;50.330;7.312;2023-02-28T09:15:56;0.60;86.70
15483;DHT22;7843;50.330;7.312;2023-02-28T09:18:23;0.70;86.50
15483;DHT22;7843;50.330;7.312;2023-02-28T09:20:50;0.80;85.30
15483;DHT22;7843;50.330;7.312;2023-02-28T09:23:17;0.90;84.60
15483;DHT22;7843;50.330;7.312;2023-02-28T09:25:49;0.90;84.60
15483;DHT22;7843;50.330;7.312;2023-02-28T09:28:16;1.00;84.40
15483;DHT22;7843;50.330;7.312;2023-02-28T09:30:48;1.00;84.20
15483;DHT22;7843;50.330;7.312;2023-02-28T09:33:16;1.00;84.00
15483;DHT22;7843;50.330;7.312;2023-02-28T09:35:43;1.10;83.80
15483;DHT22;7843;50.330;7.312;2023-02-28T09:38:10;1.20;83.80
15483;DHT22;7843;50.330;7.312;2023-02-28T09:40:50;1.30;83.00
15483;DHT22;7843;50.330;7.312;2023-02-28T09:43:21;1.30;82.60
15483;DHT22;7843;50.330;7.312;2023-02-28T09:46:26;1.50;81.50
15483;DHT22;7843;50.330;7.312;2023-02-28T09:48:54;1.50;81.30
15483;DHT22;7843;50.330;7.312;2023-02-28T09:51:36;1.50;81.70
15483;DHT22;7843;50.330;7.312;2023-02-28T09:54:04;1.70;81.90
15483;DHT22;7843;50.330;7.312;2023-02-28T09:56:39;1.80;81.30
15483;DHT22;7843;50.330;7.312;2023-02-28T10:10:35;2.30;78.00
15483;DHT22;7843;50.330;7.312;2023-02-28T10:13:12;2.40;78.00
15483;DHT22;7843;50.330;7.312;2023-02-28T10:15:40;2.40;77.50
15483;DHT22;7843;50.330;7.312;2023-02-28T10:18:14;2.30;76.40
15483;DHT22;7843;50.330;7.312;2023-02-28T10:20:42;2.20;76.30
15483;DHT22;7843;50.330;7.312;2023-02-28T10:23:14;2.30;78.10
15483;DHT22;7843;50.330;7.312;2023-02-28T10:25:46;2.40;77.40
15483;DHT22;7843;50.330;7.312;2023-02-28T10:28:16;2.70;77.70
15483;DHT22;7843;50.330;7.312;2023-02-28T10:30:49;3.00;76.80
15483;DHT22;7843;50.330;7.312;2023-02-28T10:33:32;3.10;75.10
15483;DHT22;7843;50.330;7.312;2023-02-28T10:36:01;3.10;74.40
15483;DHT22;7843;50.330;7.312;2023-02-28T10:38:37;3.10;75.10
15483;DHT22;7843;50.330;7.312;2023-02-28T10:41:07;3.30;74.60
15483;DHT22;7843;50.330;7.312;2023-02-28T10:43:35;3.60;74.50
15483;DHT22;7843;50.330;7.312;2023-02-28T10:46:09;3.90;74.50
15483;DHT22;7843;50.330;7.312;2023-02-28T10:48:44;4.10;73.10
15483;DHT22;7843;50.330;7.312;2023-02-28T10:51:14;4.00;72.50
15483;DHT22;7843;50.330;7.312;2023-02-28T10:53:54;3.90;72.20
15483;DHT22;7843;50.330;7.312;2023-02-28T10:56:28;3.80;72.80
15483;DHT22;7843;50.330;7.312;2023-02-28T11:01:39;4.30;71.40
15483;DHT22;7843;50.330;7.312;2023-02-28T11:04:32;4.60;71.40
15483;DHT22;7843;50.330;7.312;2023-02-28T11:09:37;4.90;70.90
15483;DHT22;7843;50.330;7.312;2023-02-28T11:12:07;5.00;70.30
15483;DHT22;7843;50.330;7.312;2023-02-28T11:14:58;5.10;70.50
15483;DHT22;7843;50.330;7.312;2023-02-28T11:17:28;5.10;70.00
15483;DHT22;7843;50.330;7.312;2023-02-28T11:20:03;5.10;69.90
15483;DHT22;7843;50.330;7.312;2023-02-28T11:22:34;5.30;70.40
15483;DHT22;7843;50.330;7.312;2023-02-28T11:25:13;5.50;70.20
15483;DHT22;7843;50.330;7.312;2023-02-28T11:27:49;5.50;69.00
15483;DHT22;7843;50.330;7.312;2023-02-28T11:30:33;5.70;69.40
15483;DHT22;7843;50.330;7.312;2023-02-28T11:33:14;5.90;69.30
15483;DHT22;7843;50.330;7.312;2023-02-28T11:35:45;6.10;68.20
15483;DHT22;7843;50.330;7.312;2023-02-28T11:38:13;6.30;68.30
15483;DHT22;7843;50.330;7.312;2023-02-28T11:40:48;6.30;66.80
15483;DHT22;7843;50.330;7.312;2023-02-28T11:46:27;6.20;65.70
15483;DHT22;7843;50.330;7.312;2023-02-28T11:52:21;6.10;65.60
15483;DHT22;7843;50.330;7.312;2023-02-28T11:57:48;6.00;66.90
15483;DHT22;7843;50.330;7.312;2023-02-28T12:28:44;4.50;68.40
15483;DHT22;7843;50.330;7.312;2023-02-28T12:31:23;4.50;68.20
15483;DHT22;7843;50.330;7.312;2023-02-28T12:33:59;4.70;67.30
15483;DHT22;7843;50.330;7.312;2023-02-28T12:36:27;5.00;67.30
15483;DHT22;7843;50.330;7.312;2023-02-28T12:39:02;5.00;66.90
15483;DHT22;7843;50.330;7.312;2023-02-28T12:44:23;5.20;66.00
15483;DHT22;7843;50.330;7.312;2023-02-28T12:46:55;5.20;66.00
15483;DHT22;7843;50.330;7.312;2023-02-28T12:49:31;5.40;65.90
15483;DHT22;7843;50.330;7.312;2023-02-28T12:52:00;5.50;65.70
15483;DHT22;7843;50.330;7.312;2023-02-28T12:54:49;5.80;65.50
15483;DHT22;7843;50.330;7.312;2023-02-28T13:00:23;6.90;62.80
15483;DHT22;7843;50.330;7.312;2023-02-28T13:11:38;11.30;54.10
15483;DHT22;7843;50.330;7.312;2023-02-28T13:14:19;12.00;52.90
15483;DHT22;7843;50.330;7.312;2023-02-28T13:19:58;12.90;51.40
15483;DHT22;7843;50.330;7.312;2023-02-28T13:24:53;13.30;50.00
15483;DHT22;7843;50.330;7.312;2023-02-28T13:27:32;13.40;49.80
15483;DHT22;7843;50.330;7.312;2023-02-28T13:30:00;13.80;48.40
15483;DHT22;7843;50.330;7.312;2023-02-28T13:32:30;14.00;49.20
15483;DHT22;7843;50.330;7.312;2023-02-28T13:39:57;14.20;47.90
15483;DHT22;7843;50.330;7.312;2023-02-28T13:42:52;14.40;47.30
15483;DHT22;7843;50.330;7.312;2023-02-28T13:45:23;14.80;47.20
15483;DHT22;7843;50.330;7.312;2023-02-28T13:47:59;14.90;47.20
15483;DHT22;7843;50.330;7.312;2023-02-28T13:59:14;14.90;46.40
15483;DHT22;7843;50.330;7.312;2023-02-28T14:04:48;14.60;46.40
15483;DHT22;7843;50.330;7.312;2023-02-28T14:07:46;14.30;46.60
15483;DHT22;7843;50.330;7.312;2023-02-28T14:10:25;14.40;46.30
15483;DHT22;7843;50.330;7.312;2023-02-28T14:12:58;14.90;46.00
15483;DHT22;7843;50.330;7.312;2023-02-28T14:15:34;15.10;45.20
15483;DHT22;7843;50.330;7.312;2023-02-28T14:18:11;15.20;45.00
15483;DHT22;7843;50.330;7.312;2023-02-28T14:20:40;14.90;45.20
15483;DHT22;7843;50.330;7.312;2023-02-28T14:28:41;14.20;46.30
15483;DHT22;7843;50.330;7.312;2023-02-28T14:31:25;14.00;46.40
15483;DHT22;7843;50.330;7.312;2023-02-28T14:36:45;13.90;47.10
15483;DHT22;7843;50.330;7.312;2023-02-28T14:39:15;13.90;47.20
15483;DHT22;7843;50.330;7.312;2023-02-28T14:41:46;13.50;47.00
15483;DHT22;7843;50.330;7.312;2023-02-28T14:46:45;13.00;48.10
15483;DHT22;7843;50.330;7.312;2023-02-28T14:49:24;12.50;48.70
15483;DHT22;7843;50.330;7.312;2023-02-28T14:54:42;12.10;49.70
15483;DHT22;7843;50.330;7.312;2023-02-28T14:57:31;11.90;50.20
15483;DHT22;7843;50.330;7.312;2023-02-28T15:00:25;11.60;50.80
15483;DHT22;7843;50.330;7.312;2023-02-28T15:02:50;10.90;52.10
15483;DHT22;7843;50.330;7.312;2023-02-28T15:07:45;9.30;55.40
15483;DHT22;7843;50.330;7.312;2023-02-28T15:10:25;8.80;56.00
15483;DHT22;7843;50.330;7.312;2023-02-28T15:12:59;8.40;56.70
15483;DHT22;7843;50.330;7.312;2023-02-28T15:15:59;8.60;56.90
15483;DHT22;7843;50.330;7.312;2023-02-28T15:18:30;8.30;57.80
15483;DHT22;7843;50.330;7.312;2023-02-28T15:21:02;8.30;58.60
15483;DHT22;7843;50.330;7.312;2023-02-28T15:23:30;7.90;58.80
15483;DHT22;7843;50.330;7.312;2023-02-28T15:25:58;7.50;59.50
15483;DHT22;7843;50.330;7.312;2023-02-28T15:28:25;7.20;60.40
15483;DHT22;7843;50.330;7.312;2023-02-28T15:30:55;6.80;60.40
15483;DHT22;7843;50.330;7.312;2023-02-28T15:33:25;6.40;62.30
15483;DHT22;7843;50.330;7.312;2023-02-28T15:36:10;6.10;63.00
15483;DHT22;7843;50.330;7.312;2023-02-28T15:38:37;5.90;63.30
15483;DHT22;7843;50.330;7.312;2023-02-28T15:41:04;5.60;63.50
15483;DHT22;7843;50.330;7.312;2023-02-28T15:43:36;5.40;64.40
15483;DHT22;7843;50.330;7.312;2023-02-28T15:46:09;5.20;65.20
15483;DHT22;7843;50.330;7.312;2023-02-28T15:48:54;5.10;65.30
15483;DHT22;7843;50.330;7.312;2023-02-28T15:51:38;4.90;65.70
15483;DHT22;7843;50.330;7.312;2023-02-28T15:54:07;4.80;66.60
15483;DHT22;7843;50.330;7.312;2023-02-28T15:56:55;4.70;66.70
15483;DHT22;7843;50.330;7.312;2023-02-28T15:59:32;4.70;66.80
15483;DHT22;7843;50.330;7.312;2023-02-28T16:02:11;4.50;67.60
15483;DHT22;7843;50.330;7.312;2023-02-28T16:07:24;4.30;67.30
15483;DHT22;7843;50.330;7.312;2023-02-28T16:09:51;4.30;67.60
15483;DHT22;7843;50.330;7.312;2023-02-28T16:12:20;4.20;68.20
15483;DHT22;7843;50.330;7.312;2023-02-28T16:14:52;4.20;68.20
15483;DHT22;7843;50.330;7.312;2023-02-28T16:17:25;4.10;68.80
15483;DHT22;7843;50.330;7.312;2023-02-28T16:19:54;4.10;69.10
15483;DHT22;7843;50.330;7.312;2023-02-28T16:22:21;4.00;69.60
15483;DHT22;7843;50.330;7.312;2023-02-28T16:24:48;4.00;69.10
15483;DHT22;7843;50.330;7.312;2023-02-28T16:29:44;4.00;69.40
15483;DHT22;7843;50.330;7.312;2023-02-28T16:32:14;3.90;69.70
15483;DHT22;7843;50.330;7.312;2023-02-28T16:34:43;3.80;70.10
15483;DHT22;7843;50.330;7.312;2023-02-28T16:37:15;3.80;70.70
15483;DHT22;7843;50.330;7.312;2023-02-28T16:39:43;3.70;71.10
15483;DHT22;7843;50.330;7.312;2023-02-28T16:42:31;3.60;71.70
15483;DHT22;7843;50.330;7.312;2023-02-28T16:44:58;3.60;72.10
15483;DHT22;7843;50.330;7.312;2023-02-28T16:47:24;3.50;72.80
15483;DHT22;7843;50.330;7.312;2023-02-28T16:49:53;3.40;73.10
15483;DHT22;7843;50.330;7.312;2023-02-28T16:52:19;3.30;73.90
15483;DHT22;7843;50.330;7.312;2023-02-28T16:54:46;3.30;73.70
15483;DHT22;7843;50.330;7.312;2023-02-28T16:57:20;3.20;73.70
15483;DHT22;7843;50.330;7.312;2023-02-28T16:59:50;3.10;74.70
15483;DHT22;7843;50.330;7.312;2023-02-28T17:02:19;3.10;74.80
15483;DHT22;7843;50.330;7.312;2023-02-28T17:04:47;3.00;75.50
15483;DHT22;7843;50.330;7.312;2023-02-28T17:07:15;2.90;76.10
15483;DHT22;7843;50.330;7.312;2023-02-28T17:09:43;2.70;76.30
15483;DHT22;7843;50.330;7.312;2023-02-28T17:12:11;2.60;76.60
15483;DHT22;7843;50.330;7.312;2023-02-28T17:14:38;2.50;76.90
15483;DHT22;7843;50.330;7.312;2023-02-28T17:17:06;2.40;77.10
15483;DHT22;7843;50.330;7.312;2023-02-28T17:19:32;2.30;77.20
15483;DHT22;7843;50.330;7.312;2023-02-28T17:22:00;2.20;77.70
15483;DHT22;7843;50.330;7.312;2023-02-28T17:24:27;2.20;78.30
15483;DHT22;7843;50.330;7.312;2023-02-28T17:26:56;2.10;78.00
15483;DHT22;7843;50.330;7.312;2023-02-28T17:29:23;2.00;78.50
15483;DHT22;7843;50.330;7.312;2023-02-28T17:31:50;1.80;79.30
15483;DHT22;7843;50.330;7.312;2023-02-28T17:34:17;1.70;80.00
15483;DHT22;7843;50.330;7.312;2023-02-28T17:36:50;1.60;80.00
15483;DHT22;7843;50.330;7.312;2023-02-28T17:39:17;1.60;80.10
15483;DHT22;7843;50.330;7.312;2023-02-28T17:41:51;1.50;80.00
15483;DHT22;7843;50.330;7.312;2023-02-28T17:44:18;1.40;80.90
15483;DHT22;7843;50.330;7.312;2023-02-28T17:46:46;1.30;81.10
15483;DHT22;7843;50.330;7.312;2023-02-28T17:49:13;1.30;81.40
15483;DHT22;7843;50.330;7.312;2023-02-28T17:51:40;1.20;81.20
15483;DHT22;7843;50.330;7.312;2023-02-28T17:54:06;1.20;81.00
15483;DHT22;7843;50.330;7.312;2023-02-28T17:56:33;1.10;81.30
15483;DHT22;7843;50.330;7.312;2023-02-28T17:59:00;1.10;81.80
15483;DHT22;7843;50.330;7.312;2023-02-28T18:01:26;1.00;82.60
15483;DHT22;7843;50.330;7.312;2023-02-28T18:03:54;0.90;82.80
15483;DHT22;7843;50.330;7.312;2023-02-28T18:06:23;0.80;82.90
15483;DHT22;7843;50.330;7.312;2023-02-28T18:08:51;0.80;83.10
15483;DHT22;7843;50.330;7.312;2023-02-28T18:11:19;0.70;83.40
15483;DHT22;7843;50.330;7.312;2023-02-28T18:13:51;0.70;83.40
15483;DHT22;7843;50.330;7.312;2023-02-28T18:16:20;0.60;83.80
15483;DHT22;7843;50.330;7.312;2023-02-28T18:18:50;0.60;84.00
15483;DHT22;7843;50.330;7.312;2023-02-28T18:21:17;0.50;84.00
15483;DHT22;7843;50.330;7.312;2023-02-28T18:23:44;0.60;83.60
15483;DHT22;7843;50.330;7.312;2023-02-28T18:26:15;0.50;83.70
15483;DHT22;7843;50.330;7.312;2023-02-28T18:28:42;0.40;84.10
15483;DHT22;7843;50.330;7.312;2023-02-28T18:31:16;0.40;84.50
15483;DHT22;7843;50.330;7.312;2023-02-28T18:33:47;0.30;84.80
15483;DHT22;7843;50.330;7.312;2023-02-28T18:36:14;0.40;84.40
15483;DHT22;7843;50.330;7.312;2023-02-28T18:38:40;0.40;84.00
15483;DHT22;7843;50.330;7.312;2023-02-28T18:41:07;0.40;84.10
15483;DHT22;7843;50.330;7.312;2023-02-28T18:43:36;0.40;84.40
15483;DHT22;7843;50.330;7.312;2023-02-28T18:46:08;0.40;84.80
15483;DHT22;7843;50.330;7.312;2023-02-28T18:48:35;0.30;85.10